Terminal Aerodrome Forecast
Issued by NWS

Home | Current Version | Previous Version | Text Only | Print | Product List | Glossary On
Versions: 1 2 3 4 5 6 7 8 9 10 11 12
000
FTAK31 PANC 280540
TAFAHO
TAF
PAHO 280540Z 2806/2906 07010KT 5SM -RA BR SCT025 BKN040
     FM281200 07011KT 6SM -RA BR OVC050 WS020/10040KT=

USA.gov is the U.S. government's official web portal to all federal, state and local government web resources and services.